Time;durP1;ratioP1;P1;durP2;ratioP2;P2;SDS_P1;SDS_P2;PMS_P1;PMS_P2;Temp;Humidity;BMP_temperature;BMP_pressure;BME280_temperature;BME280_humidity;BME280_pressure;Samples;Min_cycle;Max_cycle;Signal;HPM_P1;HPM_P2
2022/10/23 00:01:28;;;;;;;6.73;5.40;;;13.50;99.90;;;;;;4945692;29;20198;-74
2022/10/23 00:03:57;;;;;;;6.43;5.70;;;13.40;99.90;;;;;;4930378;29;20229;-75
2022/10/23 00:06:23;;;;;;;8.13;5.93;;;13.40;99.90;;;;;;4937378;29;20353;-75
2022/10/23 00:08:49;;;;;;;8.20;5.43;;;13.40;99.90;;;;;;4945509;29;20353;-75
2022/10/23 00:11:19;;;;;;;9.43;5.23;;;13.40;99.90;;;;;;4934782;29;20202;-75
2022/10/23 00:13:45;;;;;;;8.47;6.17;;;13.40;99.90;;;;;;4938064;29;20719;-76
2022/10/23 00:16:11;;;;;;;5.83;5.20;;;13.30;99.90;;;;;;4938243;29;20280;-78
2022/10/23 00:18:37;;;;;;;9.20;5.73;;;13.30;99.90;;;;;;4944570;29;20644;-76
2022/10/23 00:21:04;;;;;;;6.77;6.10;;;13.30;99.90;;;;;;4941858;29;20206;-76
2022/10/23 00:23:29;;;;;;;10.37;6.13;;;13.30;99.90;;;;;;4947117;29;20280;-77
2022/10/23 00:25:55;;;;;;;12.03;5.70;;;13.30;99.90;;;;;;4940302;29;20206;-77
2022/10/23 00:28:20;;;;;;;8.80;5.67;;;13.30;99.90;;;;;;4946872;29;20214;-76
2022/10/23 00:30:46;;;;;;;7.20;5.97;;;13.40;99.90;;;;;;4933272;29;20322;-76
2022/10/23 00:33:11;;;;;;;10.70;6.53;;;13.40;99.90;;;;;;4936920;29;20218;-76
2022/10/23 00:35:40;;;;;;;9.43;6.10;;;13.40;99.90;;;;;;4934698;29;20227;-76
2022/10/23 00:38:07;;;;;;;6.03;5.40;;;13.40;99.90;;;;;;4936865;29;20198;-76
2022/10/23 00:40:33;;;;;;;7.50;5.40;;;13.50;99.90;;;;;;4944934;29;20250;-76
2022/10/23 00:42:59;;;;;;;10.63;5.80;;;13.50;99.90;;;;;;4944147;29;20186;-75
2022/10/23 00:45:30;;;;;;;8.03;4.80;;;13.60;99.90;;;;;;4938960;29;20700;-77
2022/10/23 00:47:56;;;;;;;17.00;6.13;;;13.60;99.90;;;;;;4939451;29;20338;-77
2022/10/23 00:50:24;;;;;;;8.67;5.20;;;13.70;99.90;;;;;;4940377;29;20222;-76
2022/10/23 00:52:51;;;;;;;6.50;5.00;;;13.70;99.90;;;;;;4940943;28;20201;-76
2022/10/23 00:55:20;;;;;;;6.40;4.03;;;13.70;99.90;;;;;;4934461;29;20256;-78
2022/10/23 00:57:47;;;;;;;4.97;4.47;;;13.70;99.90;;;;;;4934933;29;20199;-76
2022/10/23 01:00:21;;;;;;;7.47;5.00;;;13.80;99.90;;;;;;4938058;29;20197;-76
2022/10/23 01:02:46;;;;;;;7.57;4.73;;;13.80;99.90;;;;;;4935667;29;20210;-76
2022/10/23 01:05:12;;;;;;;6.17;4.93;;;13.80;99.90;;;;;;4945989;29;20696;-76
2022/10/23 01:08:16;;;;;;;8.50;5.17;;;13.80;99.90;;;;;;4942369;29;20566;-76
2022/10/23 01:10:47;;;;;;;5.43;4.70;;;13.90;99.90;;;;;;4938749;29;20191;-76
2022/10/23 01:13:43;;;;;;;6.97;4.63;;;13.90;99.90;;;;;;4928549;29;20198;-75
2022/10/23 01:16:22;;;;;;;5.70;4.57;;;13.90;99.90;;;;;;4929857;29;20677;-75
2022/10/23 01:19:07;;;;;;;6.23;4.30;;;13.80;99.90;;;;;;4939912;29;20664;-76
2022/10/23 01:21:54;;;;;;;6.80;4.00;;;13.80;99.90;;;;;;4943270;29;20281;-75
2022/10/23 01:24:45;;;;;;;8.93;4.90;;;13.80;99.90;;;;;;4941965;29;20214;-76
2022/10/23 01:27:27;;;;;;;4.10;3.70;;;13.80;99.90;;;;;;4934076;29;20202;-75
2022/10/23 01:30:09;;;;;;;5.87;4.87;;;13.70;99.90;;;;;;4937775;29;20218;-75
2022/10/23 01:32:59;;;;;;;5.20;3.90;;;13.60;99.90;;;;;;4932679;29;20215;-80
2022/10/23 01:35:32;;;;;;;5.17;4.63;;;13.60;99.90;;;;;;4937942;29;20221;-82
2022/10/23 01:38:27;;;;;;;7.83;4.67;;;13.60;99.90;;;;;;4952976;29;20263;-85
2022/10/23 01:41:08;;;;;;;6.67;5.20;;;13.60;99.90;;;;;;4941618;29;20190;-85
2022/10/23 01:44:10;;;;;;;5.97;4.40;;;13.50;99.90;;;;;;4937781;29;20202;-84
2022/10/23 01:46:36;;;;;;;5.20;4.80;;;13.50;99.90;;;;;;4925364;29;20232;-83
2022/10/23 01:49:05;;;;;;;7.10;4.93;;;13.50;99.90;;;;;;4938474;29;20234;-84
2022/10/23 01:51:32;;;;;;;6.13;4.40;;;13.50;99.90;;;;;;4936675;29;20624;-84
2022/10/23 01:53:59;;;;;;;6.93;6.03;;;13.50;99.90;;;;;;4947806;28;20277;-85
2022/10/23 01:56:30;;;;;;;7.70;5.83;;;13.50;99.90;;;;;;4945714;28;20199;-84
2022/10/23 01:59:00;;;;;;;8.13;5.80;;;13.40;99.90;;;;;;4937720;29;20237;-83
2022/10/23 02:01:28;;;;;;;10.17;6.07;;;13.40;99.90;;;;;;4922567;29;20203;-85
2022/10/23 02:03:56;;;;;;;8.37;5.10;;;13.40;99.90;;;;;;4937657;29;20252;-84
2022/10/23 02:06:21;;;;;;;9.03;5.17;;;13.40;99.90;;;;;;4938642;29;20233;-84
2022/10/23 02:08:47;;;;;;;9.83;5.97;;;13.30;99.90;;;;;;4936689;29;20238;-84
2022/10/23 02:11:16;;;;;;;5.80;5.17;;;13.30;99.90;;;;;;4918171;29;20205;-84
2022/10/23 02:14:00;;;;;;;8.20;5.40;;;13.30;99.90;;;;;;4943648;29;20685;-87
2022/10/23 02:16:45;;;;;;;11.70;5.37;;;13.30;99.90;;;;;;4939655;29;20735;-75
2022/10/23 02:19:23;;;;;;;5.80;4.90;;;13.30;99.90;;;;;;4937979;29;20204;-78
2022/10/23 02:21:55;;;;;;;5.50;5.00;;;13.40;99.90;;;;;;4940263;29;20210;-79
2022/10/23 02:24:31;;;;;;;6.90;5.27;;;13.40;99.90;;;;;;4940953;29;20207;-80
2022/10/23 02:27:01;;;;;;;9.73;5.20;;;13.40;99.90;;;;;;4939505;29;20210;-83
2022/10/23 02:29:33;;;;;;;6.33;5.17;;;13.40;99.90;;;;;;4935036;29;20349;-82
2022/10/23 02:31:59;;;;;;;6.53;5.30;;;13.40;99.90;;;;;;4937536;29;20202;-76
2022/10/23 02:34:25;;;;;;;9.03;5.30;;;13.40;99.90;;;;;;4935023;29;20187;-73
2022/10/23 02:36:51;;;;;;;7.53;5.53;;;13.40;99.90;;;;;;4941448;29;20224;-76
2022/10/23 02:39:16;;;;;;;11.37;5.53;;;13.30;99.90;;;;;;4935692;29;20665;-78
2022/10/23 02:42:10;;;;;;;7.40;5.63;;;13.30;99.90;;;;;;4943049;29;20206;-75
2022/10/23 02:44:39;;;;;;;8.10;4.70;;;13.30;99.90;;;;;;4934536;29;20190;-79
2022/10/23 02:47:33;;;;;;;6.27;4.97;;;13.30;99.90;;;;;;4942879;29;20305;-78
2022/10/23 02:50:11;;;;;;;10.10;5.63;;;13.30;99.90;;;;;;4936152;29;20214;-78
2022/10/23 02:52:59;;;;;;;9.87;6.50;;;13.30;99.90;;;;;;4939095;28;20690;-79
2022/10/23 02:56:07;;;;;;;8.77;5.10;;;13.20;99.90;;;;;;4939274;29;20191;-79
2022/10/23 02:59:13;;;;;;;6.20;4.70;;;13.20;99.90;;;;;;4937899;29;20202;-78
2022/10/23 03:01:53;;;;;;;6.20;5.23;;;13.10;99.90;;;;;;4933819;29;20715;-76
2022/10/23 03:04:22;;;;;;;6.13;5.00;;;13.10;99.90;;;;;;4929081;29;20206;-81
2022/10/23 03:06:49;;;;;;;6.33;5.23;;;13.00;99.90;;;;;;4928390;28;20329;-80
2022/10/23 03:09:15;;;;;;;7.43;5.23;;;12.90;99.90;;;;;;4929555;29;20228;-76
2022/10/23 03:11:40;;;;;;;5.13;4.63;;;12.90;99.90;;;;;;4944333;29;20194;-78
2022/10/23 03:14:06;;;;;;;6.30;5.33;;;12.80;99.90;;;;;;4947387;29;20627;-79
2022/10/23 03:16:31;;;;;;;8.17;5.30;;;12.80;99.90;;;;;;4935801;29;20210;-79
2022/10/23 03:18:57;;;;;;;6.07;5.30;;;12.70;99.90;;;;;;4945960;29;20195;-78
2022/10/23 03:21:22;;;;;;;7.87;5.17;;;12.70;99.90;;;;;;4939870;29;20808;-79
2022/10/23 03:23:48;;;;;;;12.70;5.93;;;12.70;99.90;;;;;;4943217;29;20202;-78
2022/10/23 03:26:15;;;;;;;10.33;6.83;;;12.60;99.90;;;;;;4942621;29;20253;-78
2022/10/23 03:28:40;;;;;;;9.77;6.37;;;12.60;99.90;;;;;;4946978;29;20225;-78
2022/10/23 03:31:06;;;;;;;7.70;5.83;;;12.60;99.90;;;;;;4942492;29;20202;-76
2022/10/23 03:33:31;;;;;;;7.10;5.47;;;12.50;99.90;;;;;;4942847;29;20653;-78
2022/10/23 03:35:57;;;;;;;7.60;5.67;;;12.50;99.90;;;;;;4944534;29;20195;-78
2022/10/23 03:38:22;;;;;;;9.17;6.47;;;12.50;99.90;;;;;;4946540;29;20197;-79
2022/10/23 03:40:48;;;;;;;7.60;5.80;;;12.40;99.90;;;;;;4939472;29;20189;-78
2022/10/23 03:43:14;;;;;;;5.83;5.33;;;12.40;99.90;;;;;;4945668;29;20201;-78
2022/10/23 03:45:39;;;;;;;6.97;5.20;;;12.40;99.90;;;;;;4948242;29;20193;-78
2022/10/23 03:48:06;;;;;;;7.10;5.80;;;12.30;99.90;;;;;;4943332;29;20583;-78
2022/10/23 03:50:31;;;;;;;8.93;6.17;;;12.30;99.90;;;;;;4939161;29;20202;-78
2022/10/23 03:52:57;;;;;;;6.90;5.90;;;12.30;99.90;;;;;;4943629;28;20232;-78
2022/10/23 03:55:24;;;;;;;9.03;7.13;;;12.20;99.90;;;;;;4944535;29;20573;-79
2022/10/23 03:57:50;;;;;;;9.07;7.60;;;12.20;99.90;;;;;;4941778;29;20296;-78
2022/10/23 04:00:16;;;;;;;8.33;6.97;;;12.10;99.90;;;;;;4947480;29;20260;-77
2022/10/23 04:02:41;;;;;;;9.90;6.87;;;12.10;99.90;;;;;;4946517;29;20238;-78
2022/10/23 04:05:07;;;;;;;7.77;6.00;;;12.10;99.90;;;;;;4936850;29;20902;-77
2022/10/23 04:07:32;;;;;;;8.83;7.10;;;12.10;99.90;;;;;;4946131;29;20732;-78
2022/10/23 04:09:58;;;;;;;9.33;6.77;;;12.00;99.90;;;;;;4941545;29;20228;-79
2022/10/23 04:12:23;;;;;;;6.80;6.07;;;12.00;99.90;;;;;;4936221;29;20205;-80
2022/10/23 04:14:48;;;;;;;6.73;6.00;;;11.90;99.90;;;;;;4941487;29;20186;-80
2022/10/23 04:17:14;;;;;;;7.60;6.07;;;11.90;99.90;;;;;;4941663;29;20208;-80
2022/10/23 04:19:39;;;;;;;7.60;6.80;;;11.90;99.90;;;;;;4937689;29;20256;-80
2022/10/23 04:22:05;;;;;;;8.00;6.80;;;11.80;99.90;;;;;;4943932;29;20233;-80
2022/10/23 04:24:30;;;;;;;8.63;7.67;;;11.80;99.90;;;;;;4937946;29;20193;-80
2022/10/23 04:26:56;;;;;;;7.37;5.97;;;11.70;99.90;;;;;;4941417;29;20193;-80
2022/10/23 04:29:23;;;;;;;12.53;7.07;;;11.70;99.90;;;;;;4938054;29;20213;-78
2022/10/23 04:31:50;;;;;;;9.27;6.37;;;11.60;99.90;;;;;;4944684;29;20830;-79
2022/10/23 04:34:16;;;;;;;8.37;6.57;;;11.60;99.90;;;;;;4938318;29;20194;-79
2022/10/23 04:36:42;;;;;;;11.17;6.70;;;11.60;99.90;;;;;;4936635;29;20198;-78
2022/10/23 04:39:08;;;;;;;11.53;6.93;;;11.60;99.90;;;;;;4947394;29;20209;-78
2022/10/23 04:41:33;;;;;;;7.87;6.40;;;11.50;99.90;;;;;;4946457;29;20593;-82
2022/10/23 04:43:59;;;;;;;12.47;6.43;;;11.50;99.90;;;;;;4928152;29;20292;-81
2022/10/23 04:46:30;;;;;;;8.27;6.63;;;11.50;99.90;;;;;;4935369;29;20251;-80
2022/10/23 04:48:56;;;;;;;9.83;6.97;;;11.50;99.90;;;;;;4937091;29;20808;-80
2022/10/23 04:51:21;;;;;;;7.40;6.70;;;11.50;99.90;;;;;;4940424;29;20277;-79
2022/10/23 04:53:47;;;;;;;9.03;7.23;;;11.50;99.90;;;;;;4943987;28;20236;-80
2022/10/23 04:56:14;;;;;;;7.93;6.77;;;11.50;99.90;;;;;;4942668;29;20221;-79
2022/10/23 04:58:40;;;;;;;9.57;7.07;;;11.50;99.90;;;;;;4938863;29;20317;-79
2022/10/23 05:01:06;;;;;;;10.33;7.37;;;11.40;99.90;;;;;;4944288;29;20592;-79
2022/10/23 05:03:32;;;;;;;13.83;6.77;;;11.40;99.90;;;;;;4944984;29;20961;-80
2022/10/23 05:05:57;;;;;;;8.73;7.17;;;11.40;99.90;;;;;;4947019;29;20213;-80
2022/10/23 05:08:23;;;;;;;7.97;7.10;;;11.40;99.90;;;;;;4945203;29;20301;-80
2022/10/23 05:10:49;;;;;;;8.53;6.63;;;11.40;99.90;;;;;;4946466;29;20200;-79
2022/10/23 05:13:18;;;;;;;9.97;6.93;;;11.40;99.90;;;;;;4940381;29;20648;-79
2022/10/23 05:15:48;;;;;;;10.43;7.40;;;11.40;99.90;;;;;;4946579;29;20277;-81
2022/10/23 05:18:24;;;;;;;9.43;7.10;;;11.40;99.90;;;;;;4945251;29;20197;-80
2022/10/23 05:20:56;;;;;;;7.17;6.37;;;11.40;99.90;;;;;;4937614;29;20703;-79
2022/10/23 05:23:24;;;;;;;8.73;7.17;;;11.40;99.90;;;;;;4942882;29;20219;-80
2022/10/23 05:25:49;;;;;;;9.53;7.23;;;11.50;99.90;;;;;;4946456;29;20198;-77
2022/10/23 05:28:15;;;;;;;10.80;7.83;;;11.50;99.90;;;;;;4941572;29;20265;-80
2022/10/23 05:30:41;;;;;;;8.60;7.70;;;11.50;99.90;;;;;;4936476;28;20194;-80
2022/10/23 05:33:08;;;;;;;10.93;7.77;;;11.50;99.90;;;;;;4941171;29;20283;-81
2022/10/23 05:35:35;;;;;;;8.63;7.70;;;11.50;99.90;;;;;;4938208;29;20193;-81
2022/10/23 05:38:01;;;;;;;8.60;7.50;;;11.50;99.90;;;;;;4938175;29;20205;-79
2022/10/23 05:40:27;;;;;;;9.87;8.07;;;11.50;99.90;;;;;;4943774;29;20210;-76
2022/10/23 05:42:52;;;;;;;11.93;7.53;;;11.50;99.90;;;;;;4935442;29;20205;-75
2022/10/23 05:45:18;;;;;;;8.40;6.97;;;11.50;99.90;;;;;;4936826;29;20650;-76
2022/10/23 05:47:44;;;;;;;8.67;7.77;;;11.50;99.90;;;;;;4939188;29;20319;-77
2022/10/23 05:50:10;;;;;;;10.30;7.53;;;11.50;99.90;;;;;;4945603;29;20239;-77
2022/10/23 05:52:35;;;;;;;9.43;7.47;;;11.50;99.90;;;;;;4919136;28;20260;-78
2022/10/23 05:55:01;;;;;;;9.87;8.40;;;11.50;99.90;;;;;;4937968;29;20720;-77
2022/10/23 05:57:27;;;;;;;10.37;8.43;;;11.50;99.90;;;;;;4942807;29;20192;-77
2022/10/23 05:59:52;;;;;;;13.27;8.50;;;11.50;99.90;;;;;;4936987;29;20205;-74
2022/10/23 06:02:18;;;;;;;9.57;7.93;;;11.50;99.90;;;;;;4931644;29;20664;-75
2022/10/23 06:04:43;;;;;;;12.67;8.70;;;11.60;99.90;;;;;;4938416;29;20237;-71
2022/10/23 06:07:08;;;;;;;10.20;7.97;;;11.60;99.90;;;;;;4927917;29;20187;-69
2022/10/23 06:09:34;;;;;;;11.37;8.03;;;11.60;99.90;;;;;;4930566;29;20206;-69
2022/10/23 06:12:02;;;;;;;8.57;7.60;;;11.60;99.90;;;;;;4933031;29;20237;-73
2022/10/23 06:14:28;;;;;;;12.50;8.13;;;11.60;99.90;;;;;;4931211;29;20658;-71
2022/10/23 06:16:53;;;;;;;9.43;8.50;;;11.60;99.90;;;;;;4934658;29;20237;-70
2022/10/23 06:19:19;;;;;;;13.50;8.90;;;11.60;99.90;;;;;;4935569;29;20584;-70
2022/10/23 06:21:44;;;;;;;11.23;7.70;;;11.60;99.90;;;;;;4935919;29;20222;-70
2022/10/23 06:24:10;;;;;;;10.73;7.83;;;11.60;99.90;;;;;;4937055;29;20206;-72
2022/10/23 06:26:35;;;;;;;8.37;7.47;;;11.70;99.90;;;;;;4939384;29;20204;-70
2022/10/23 06:29:01;;;;;;;9.53;7.47;;;11.70;99.90;;;;;;4931292;29;20229;-72
2022/10/23 06:31:27;;;;;;;10.93;8.27;;;11.70;99.90;;;;;;4938235;29;20193;-72
2022/10/23 06:33:56;;;;;;;10.10;7.90;;;11.70;99.90;;;;;;4934466;29;20524;-71
2022/10/23 06:36:22;;;;;;;10.00;7.27;;;11.70;99.90;;;;;;4935054;29;20321;-74
2022/10/23 06:38:48;;;;;;;9.60;8.47;;;11.70;99.90;;;;;;4936393;29;20742;-71
2022/10/23 06:41:16;;;;;;;15.03;12.03;;;11.70;99.90;;;;;;4938286;28;20202;-73
2022/10/23 06:43:42;;;;;;;14.40;11.03;;;11.80;99.90;;;;;;4935873;29;20692;-70
2022/10/23 06:46:08;;;;;;;11.83;9.00;;;11.80;99.90;;;;;;4936261;29;20288;-72
2022/10/23 06:48:34;;;;;;;8.30;7.33;;;11.90;99.90;;;;;;4917536;29;20229;-74
2022/10/23 06:51:04;;;;;;;10.93;7.47;;;12.00;99.90;;;;;;4937487;29;20208;-72
2022/10/23 06:53:30;;;;;;;9.10;7.23;;;12.10;99.90;;;;;;4935757;28;20202;-75
2022/10/23 06:56:00;;;;;;;10.57;8.53;;;12.10;99.90;;;;;;4934808;29;20186;-72
2022/10/23 06:58:25;;;;;;;8.63;7.73;;;12.20;99.90;;;;;;4937245;29;20204;-72
2022/10/23 07:00:51;;;;;;;11.13;8.83;;;12.30;99.90;;;;;;4936466;29;20239;-68
2022/10/23 07:03:16;;;;;;;12.40;6.93;;;12.30;99.90;;;;;;4936057;29;20205;-68
2022/10/23 07:05:43;;;;;;;9.67;7.27;;;12.30;99.90;;;;;;4919665;29;20248;-68
2022/10/23 07:08:09;;;;;;;8.73;7.40;;;12.40;99.90;;;;;;4938783;29;20206;-76
2022/10/23 07:10:35;;;;;;;9.70;8.20;;;12.40;99.90;;;;;;4937611;29;20227;-71
2022/10/23 07:13:02;;;;;;;10.17;7.70;;;12.50;99.90;;;;;;4941400;29;20673;-76
2022/10/23 07:15:28;;;;;;;9.53;7.33;;;12.60;99.90;;;;;;4935807;29;20182;-74
2022/10/23 07:17:54;;;;;;;12.50;9.17;;;12.60;99.90;;;;;;4942057;29;20216;-72
2022/10/23 07:20:20;;;;;;;11.30;8.17;;;12.70;99.90;;;;;;4936196;29;20667;-69
2022/10/23 07:22:53;;;;;;;9.83;8.30;;;12.70;99.90;;;;;;4934110;29;20224;-73
2022/10/23 07:25:21;;;;;;;10.53;8.23;;;12.90;99.90;;;;;;4937208;29;20559;-72
2022/10/23 07:27:46;;;;;;;10.07;7.50;;;12.90;99.90;;;;;;4934427;29;20210;-76
2022/10/23 07:30:15;;;;;;;9.37;7.97;;;13.00;99.90;;;;;;4935104;29;20584;-74
2022/10/23 07:32:41;;;;;;;8.17;7.30;;;13.00;99.90;;;;;;4935089;29;20214;-75
2022/10/23 07:35:08;;;;;;;9.20;8.30;;;13.10;99.90;;;;;;4939261;29;20199;-73
2022/10/23 07:37:34;;;;;;;8.83;7.00;;;13.20;99.90;;;;;;4934873;29;20193;-74
2022/10/23 07:39:59;;;;;;;9.33;8.17;;;13.20;99.90;;;;;;4935991;29;20207;-75
2022/10/23 07:42:25;;;;;;;8.70;7.10;;;13.30;99.90;;;;;;4933367;29;20211;-73
2022/10/23 07:44:50;;;;;;;11.03;7.73;;;13.30;99.90;;;;;;4937079;29;20210;-73
2022/10/23 07:47:16;;;;;;;9.80;7.23;;;13.40;99.90;;;;;;4936047;29;20522;-75
2022/10/23 07:49:41;;;;;;;8.50;6.83;;;13.50;99.90;;;;;;4940750;29;20209;-76
2022/10/23 07:52:07;;;;;;;11.93;7.27;;;13.50;99.90;;;;;;4937240;29;20178;-71
2022/10/23 07:54:33;;;;;;;7.73;6.93;;;13.60;99.90;;;;;;4940111;28;20603;-71
2022/10/23 07:56:59;;;;;;;8.40;6.63;;;13.70;99.90;;;;;;4937277;29;20213;-71
2022/10/23 07:59:25;;;;;;;14.37;11.13;;;13.70;99.90;;;;;;4937959;29;20254;-73
2022/10/23 08:01:53;;;;;;;7.20;6.50;;;13.70;99.90;;;;;;4939799;29;20197;-75
2022/10/23 08:04:19;;;;;;;8.73;7.07;;;13.80;99.90;;;;;;4939297;29;20222;-74
2022/10/23 08:06:44;;;;;;;9.63;7.53;;;13.90;99.90;;;;;;4940140;29;20191;-76
2022/10/23 08:09:10;;;;;;;7.77;6.97;;;14.00;99.90;;;;;;4938366;29;20760;-77
2022/10/23 08:11:35;;;;;;;7.87;6.97;;;14.10;99.90;;;;;;4942787;29;20201;-75
2022/10/23 08:14:04;;;;;;;8.33;7.53;;;14.20;99.90;;;;;;4922332;29;20289;-75
2022/10/23 08:16:31;;;;;;;9.67;7.13;;;14.20;99.90;;;;;;4939047;29;20206;-75
2022/10/23 08:18:57;;;;;;;8.17;7.33;;;14.10;99.90;;;;;;4935901;29;20266;-79
2022/10/23 08:21:22;;;;;;;9.60;6.33;;;14.10;99.90;;;;;;4941607;29;20210;-77
2022/10/23 08:23:48;;;;;;;8.47;7.30;;;14.10;99.90;;;;;;4945326;29;20202;-66
2022/10/23 08:26:14;;;;;;;7.20;6.60;;;14.20;99.90;;;;;;4939642;29;20207;-67
2022/10/23 08:28:39;;;;;;;11.23;6.87;;;14.20;99.90;;;;;;4944453;29;20221;-67
2022/10/23 08:31:18;;;;;;;9.50;7.10;;;14.30;99.90;;;;;;4946773;29;20599;-68
2022/10/23 08:33:44;;;;;;;8.57;6.13;;;14.40;99.90;;;;;;4935247;29;20233;-68
2022/10/23 08:36:19;;;;;;;8.17;6.80;;;14.40;99.90;;;;;;4939036;29;20261;-66
2022/10/23 08:38:45;;;;;;;7.63;6.40;;;14.40;99.90;;;;;;4935176;29;20282;-67
2022/10/23 08:41:23;;;;;;;7.13;6.23;;;14.50;99.90;;;;;;4938310;29;20576;-70
2022/10/23 08:43:58;;;;;;;10.43;6.60;;;14.60;99.90;;;;;;4940697;29;20988;-68
2022/10/23 08:46:28;;;;;;;9.93;6.60;;;14.70;99.90;;;;;;4939301;29;20340;-67
2022/10/23 08:49:05;;;;;;;9.33;6.03;;;14.70;99.90;;;;;;4945306;29;20234;-66
2022/10/23 08:51:43;;;;;;;7.70;5.40;;;14.70;99.90;;;;;;4947030;29;20666;-67
2022/10/23 08:54:38;;;;;;;8.80;5.53;;;14.80;99.90;;;;;;4945721;28;20248;-80
2022/10/23 08:57:11;;;;;;;9.57;5.90;;;14.90;99.90;;;;;;4937696;29;20182;-69
2022/10/23 08:59:51;;;;;;;5.70;4.77;;;15.10;99.90;;;;;;4941149;29;20213;-72
2022/10/23 09:02:47;;;;;;;6.80;5.13;;;15.20;99.90;;;;;;4936106;29;20221;-71
2022/10/23 09:05:54;;;;;;;8.43;5.43;;;15.30;99.90;;;;;;4935163;29;20967;-73
2022/10/23 09:08:25;;;;;;;6.47;5.20;;;15.40;99.90;;;;;;4848307;29;20212;-72
2022/10/23 09:11:00;;;;;;;9.33;5.93;;;15.40;99.90;;;;;;4847309;29;20193;-72
2022/10/23 09:13:41;;;;;;;7.47;4.90;;;15.50;99.90;;;;;;4891245;29;20646;-72
2022/10/23 09:16:29;;;;;;;7.17;5.00;;;15.50;99.90;;;;;;4931120;29;20198;-71
2022/10/23 09:18:56;;;;;;;3.80;3.47;;;15.60;99.90;;;;;;4942049;29;20208;-74
2022/10/23 09:21:28;;;;;;;5.83;4.63;;;15.70;99.90;;;;;;4935477;29;20194;-78
2022/10/23 09:23:55;;;;;;;5.23;4.13;;;15.80;99.90;;;;;;4924526;29;20214;-75
2022/10/23 09:26:21;;;;;;;7.30;4.00;;;15.80;99.90;;;;;;4930961;29;20194;-73
2022/10/23 09:28:49;;;;;;;4.87;3.53;;;15.80;99.90;;;;;;4927022;29;20224;-73
2022/10/23 09:31:16;;;;;;;6.70;4.30;;;15.90;99.90;;;;;;4928734;29;20218;-72
2022/10/23 09:33:56;;;;;;;8.40;3.90;;;15.90;99.90;;;;;;4927275;29;20203;-73
2022/10/23 09:36:24;;;;;;;4.53;3.73;;;16.00;99.90;;;;;;4928106;29;20658;-71
2022/10/23 09:38:52;;;;;;;4.60;4.17;;;16.10;99.90;;;;;;4929696;29;20262;-73
2022/10/23 09:41:35;;;;;;;6.17;3.57;;;16.10;99.90;;;;;;4929930;29;20218;-72
2022/10/23 09:44:08;;;;;;;8.07;6.30;;;16.10;99.90;;;;;;4923855;29;20207;-73
2022/10/23 09:46:42;;;;;;;4.83;3.70;;;16.30;99.90;;;;;;4929771;29;20232;-74
2022/10/23 09:49:26;;;;;;;4.90;3.80;;;16.40;99.90;;;;;;4929889;29;20226;-71
2022/10/23 09:52:03;;;;;;;5.43;3.30;;;16.50;99.90;;;;;;4927281;29;20205;-72
2022/10/23 09:54:32;;;;;;;4.43;3.30;;;16.50;99.90;;;;;;4925351;29;20366;-71
2022/10/23 09:57:11;;;;;;;6.87;3.20;;;16.60;99.90;;;;;;4928590;29;20301;-72
2022/10/23 09:59:36;;;;;;;4.27;3.30;;;16.70;99.90;;;;;;4933097;29;20248;-73
2022/10/23 10:02:03;;;;;;;3.77;3.00;;;16.80;99.90;;;;;;4933555;29;20202;-71
2022/10/23 10:04:40;;;;;;;12.77;2.93;;;16.80;99.90;;;;;;4941401;29;20683;-72
2022/10/23 10:07:24;;;;;;;5.47;2.90;;;16.90;99.90;;;;;;4938660;29;20205;-70
2022/10/23 10:09:52;;;;;;;6.03;3.10;;;16.90;99.90;;;;;;4937067;29;20269;-73
2022/10/23 10:12:48;;;;;;;9.10;3.03;;;17.00;99.90;;;;;;4933589;29;20191;-70
2022/10/23 10:15:18;;;;;;;5.23;2.77;;;17.00;99.90;;;;;;4936828;29;20230;-70
2022/10/23 10:18:10;;;;;;;4.83;2.43;;;17.10;99.90;;;;;;4933966;29;20211;-71
2022/10/23 10:21:01;;;;;;;5.57;2.83;;;17.30;99.90;;;;;;4933957;29;20214;-71
2022/10/23 10:23:31;;;;;;;14.57;10.30;;;17.50;99.90;;;;;;4935555;29;20194;-72
2022/10/23 10:26:06;;;;;;;2.70;2.10;;;17.70;99.90;;;;;;4945739;29;20206;-80
2022/10/23 10:28:57;;;;;;;4.80;3.30;;;17.80;99.90;;;;;;4933014;29;20206;-80
2022/10/23 10:31:41;;;;;;;3.00;1.90;;;17.90;99.90;;;;;;4935481;29;20198;-73
2022/10/23 10:34:16;;;;;;;3.60;2.10;;;18.10;99.90;;;;;;4938177;29;20206;-79
2022/10/23 10:36:54;;;;;;;2.33;2.13;;;18.30;99.90;;;;;;4932723;29;20198;-69
2022/10/23 10:39:44;;;;;;;6.03;2.50;;;18.50;99.90;;;;;;4935511;29;20265;-70
2022/10/23 10:42:41;;;;;;;2.77;2.03;;;18.60;99.90;;;;;;4936840;29;20248;-72
2022/10/23 10:45:25;;;;;;;3.23;1.80;;;18.70;99.90;;;;;;4936514;29;20197;-71
2022/10/23 10:48:06;;;;;;;3.10;2.27;;;18.70;99.90;;;;;;4932256;29;20232;-72
2022/10/23 10:50:42;;;;;;;2.50;1.90;;;18.90;99.90;;;;;;4935980;29;20713;-73
2022/10/23 10:53:24;;;;;;;3.57;2.07;;;19.10;99.90;;;;;;4935660;28;20723;-74
2022/10/23 10:55:54;;;;;;;4.63;2.20;;;19.30;99.90;;;;;;4935893;29;20203;-73
2022/10/23 10:58:37;;;;;;;4.90;2.17;;;19.40;99.90;;;;;;4934886;29;20678;-71
2022/10/23 11:01:13;;;;;;;5.50;2.10;;;19.50;99.90;;;;;;4935588;29;20195;-74
2022/10/23 11:03:44;;;;;;;4.03;2.33;;;19.60;99.90;;;;;;4933945;29;20594;-73
2022/10/23 11:06:15;;;;;;;3.13;1.90;;;19.60;99.90;;;;;;4937960;29;20227;-71
2022/10/23 11:08:41;;;;;;;4.77;2.60;;;19.60;99.90;;;;;;4934927;29;20625;-72
2022/10/23 11:11:20;;;;;;;3.27;2.07;;;19.60;99.90;;;;;;4938645;29;20301;-73
2022/10/23 11:13:46;;;;;;;4.30;2.30;;;19.60;99.90;;;;;;4935899;29;20210;-73
2022/10/23 11:16:23;;;;;;;3.03;2.10;;;19.60;99.90;;;;;;4936895;29;20348;-72
2022/10/23 11:18:59;;;;;;;3.73;2.23;;;19.70;99.90;;;;;;4934571;29;20204;-74
2022/10/23 11:21:46;;;;;;;7.03;1.90;;;19.80;99.90;;;;;;4941717;29;20848;-72
2022/10/23 11:24:45;;;;;;;2.33;1.70;;;20.00;99.90;;;;;;4939952;29;20204;-72
2022/10/23 11:27:38;;;;;;;2.80;2.10;;;20.20;99.90;;;;;;4938846;29;20327;-74
2022/10/23 11:30:28;;;;;;;3.57;2.00;;;20.40;99.90;;;;;;4941690;29;20217;-73
2022/10/23 11:33:18;;;;;;;2.87;1.73;;;20.60;99.90;;;;;;4937504;29;20200;-74
2022/10/23 11:36:15;;;;;;;2.97;2.20;;;20.80;99.90;;;;;;4939238;29;20648;-70
2022/10/23 11:38:44;;;;;;;4.60;2.27;;;21.10;99.90;;;;;;4939158;29;20220;-71
2022/10/23 11:41:20;;;;;;;3.10;1.60;;;21.30;99.90;;;;;;4939491;29;20190;-73
2022/10/23 11:43:55;;;;;;;3.33;2.00;;;21.40;99.90;;;;;;4939694;29;20198;-73
2022/10/23 11:46:24;;;;;;;2.67;1.90;;;21.60;99.90;;;;;;4940561;29;20213;-72
2022/10/23 11:48:50;;;;;;;3.30;2.57;;;21.70;99.90;;;;;;4940067;29;20344;-74
2022/10/23 11:51:37;;;;;;;3.40;2.13;;;21.90;99.90;;;;;;4945156;29;20194;-71
2022/10/23 11:54:23;;;;;;;7.97;2.27;;;22.00;99.90;;;;;;4945872;28;20209;-75
2022/10/23 11:57:06;;;;;;;3.57;1.83;;;22.20;99.90;;;;;;4947260;29;20197;-73
2022/10/23 11:59:38;;;;;;;4.57;2.10;;;22.30;99.90;;;;;;4939339;29;20210;-72
2022/10/23 12:02:20;;;;;;;4.33;2.37;;;22.30;99.90;;;;;;4940215;29;20281;-76
2022/10/23 12:04:49;;;;;;;4.50;2.00;;;22.30;99.90;;;;;;4936088;29;20214;-71
2022/10/23 12:07:28;;;;;;;4.13;1.50;;;22.30;99.90;;;;;;4937293;29;20249;-74
2022/10/23 12:10:04;;;;;;;4.87;2.10;;;22.40;99.90;;;;;;4935778;29;20400;-73
2022/10/23 12:12:39;;;;;;;6.57;2.47;;;22.70;99.90;;;;;;4941045;29;20186;-71
2022/10/23 12:15:07;;;;;;;4.60;2.37;;;22.90;99.90;;;;;;4937894;29;20198;-79
2022/10/23 12:17:36;;;;;;;3.50;1.77;;;23.10;99.90;;;;;;4941076;29;20198;-77
2022/10/23 12:20:23;;;;;;;3.10;1.60;;;23.20;99.90;;;;;;4938856;29;20277;-77
2022/10/23 12:23:27;;;;;;;8.10;2.25;;;23.30;99.90;;;;;;4940225;29;21037;-78
2022/10/23 12:26:15;;;;;;;3.42;1.92;;;23.40;99.90;;;;;;4937378;29;20595;-79
2022/10/23 12:29:00;;;;;;;4.60;1.77;;;23.50;99.90;;;;;;4939870;29;20207;-78
2022/10/23 12:31:39;;;;;;;2.70;1.90;;;23.50;99.90;;;;;;4939722;29;20569;-78
2022/10/23 12:34:23;;;;;;;2.47;1.63;;;23.50;99.90;;;;;;4936024;29;20199;-78
2022/10/23 12:37:03;;;;;;;4.27;1.90;;;23.40;99.90;;;;;;4940142;29;20210;-78
2022/10/23 12:39:31;;;;;;;1.93;1.27;;;23.10;99.90;;;;;;4938562;28;20415;-78
2022/10/23 12:41:58;;;;;;;3.73;2.43;;;22.90;99.90;;;;;;4938830;29;20661;-77
2022/10/23 12:44:24;;;;;;;3.10;1.83;;;22.80;99.90;;;;;;4939078;29;20234;-76
2022/10/23 12:46:54;;;;;;;9.35;3.67;;;22.60;99.90;;;;;;4946328;29;20688;-77
2022/10/23 12:49:23;;;;;;;6.07;3.10;;;22.30;99.90;;;;;;4944119;29;20225;-78
2022/10/23 12:51:59;;;;;;;2.43;1.83;;;22.10;99.90;;;;;;4938813;29;20277;-77
2022/10/23 12:54:25;;;;;;;2.63;1.83;;;21.90;99.90;;;;;;4935380;28;20694;-77
2022/10/23 12:56:52;;;;;;;3.40;2.20;;;21.70;99.90;;;;;;4946498;29;20199;-78
2022/10/23 12:59:26;;;;;;;2.33;1.70;;;21.60;99.90;;;;;;4934839;29;20261;-73
2022/10/23 13:01:53;;;;;;;5.80;1.67;;;21.60;99.90;;;;;;4925462;29;20862;-75
2022/10/23 13:04:29;;;;;;;8.80;2.10;;;21.50;99.90;;;;;;4934467;29;20211;-75
2022/10/23 13:07:00;;;;;;;3.00;1.73;;;21.40;99.90;;;;;;4934053;29;20199;-76
2022/10/23 13:09:33;;;;;;;3.70;2.20;;;21.30;99.90;;;;;;4931656;29;20225;-75